sensor_id;sensor_type;location;lat;lon;timestamp;P1;durP1;ratioP1;P2;durP2;ratioP2
40537;SDS011;27925;41.874;12.526;2023-01-20T01:08:36;9.98;;;3.60;;
40537;SDS011;27925;41.874;12.526;2023-01-20T01:11:02;13.32;;;3.30;;
40537;SDS011;27925;41.874;12.526;2023-01-20T01:13:29;8.43;;;2.80;;
40537;SDS011;27925;41.874;12.526;2023-01-20T01:15:55;7.25;;;2.70;;
40537;SDS011;27925;41.874;12.526;2023-01-20T01:18:21;8.98;;;3.15;;
40537;SDS011;27925;41.874;12.526;2023-01-20T01:21:08;9.77;;;2.85;;
40537;SDS011;27925;41.874;12.526;2023-01-20T01:23:36;8.43;;;2.97;;
40537;SDS011;27925;41.874;12.526;2023-01-20T01:26:02;6.50;;;2.55;;
40537;SDS011;27925;41.874;12.526;2023-01-20T01:28:28;10.05;;;2.85;;
40537;SDS011;27925;41.874;12.526;2023-01-20T01:30:53;8.25;;;2.80;;
40537;SDS011;27925;41.874;12.526;2023-01-20T01:33:19;5.90;;;2.70;;
40537;SDS011;27925;41.874;12.526;2023-01-20T01:35:54;5.68;;;2.80;;
40537;SDS011;27925;41.874;12.526;2023-01-20T01:38:23;6.43;;;2.85;;
40537;SDS011;27925;41.874;12.526;2023-01-20T01:40:49;6.97;;;3.00;;
40537;SDS011;27925;41.874;12.526;2023-01-20T01:43:23;7.80;;;2.95;;
40537;SDS011;27925;41.874;12.526;2023-01-20T01:45:50;8.43;;;3.00;;
40537;SDS011;27925;41.874;12.526;2023-01-20T01:48:18;7.05;;;2.80;;
40537;SDS011;27925;41.874;12.526;2023-01-20T01:50:50;8.70;;;3.17;;
40537;SDS011;27925;41.874;12.526;2023-01-20T01:53:20;7.22;;;3.20;;
40537;SDS011;27925;41.874;12.526;2023-01-20T01:55:48;9.15;;;3.42;;
40537;SDS011;27925;41.874;12.526;2023-01-20T01:58:23;11.88;;;3.45;;
40537;SDS011;27925;41.874;12.526;2023-01-20T02:00:53;8.65;;;3.50;;
40537;SDS011;27925;41.874;12.526;2023-01-20T02:03:19;8.65;;;3.40;;
40537;SDS011;27925;41.874;12.526;2023-01-20T02:05:46;9.57;;;3.10;;
40537;SDS011;27925;41.874;12.526;2023-01-20T02:08:14;6.82;;;3.38;;
40537;SDS011;27925;41.874;12.526;2023-01-20T02:10:39;7.30;;;3.50;;
40537;SDS011;27925;41.874;12.526;2023-01-20T02:13:05;8.80;;;3.63;;
40537;SDS011;27925;41.874;12.526;2023-01-20T02:15:37;6.03;;;2.95;;
40537;SDS011;27925;41.874;12.526;2023-01-20T02:26:51;7.88;;;3.45;;
40537;SDS011;27925;41.874;12.526;2023-01-20T02:30:33;9.32;;;3.72;;
40537;SDS011;27925;41.874;12.526;2023-01-20T02:32:50;7.53;;;2.90;;
40537;SDS011;27925;41.874;12.526;2023-01-20T02:35:24;7.15;;;3.33;;
40537;SDS011;27925;41.874;12.526;2023-01-20T02:43:34;6.97;;;3.53;;
40537;SDS011;27925;41.874;12.526;2023-01-20T02:46:14;12.32;;;4.35;;
40537;SDS011;27925;41.874;12.526;2023-01-20T02:54:22;7.05;;;3.30;;
40537;SDS011;27925;41.874;12.526;2023-01-20T02:56:53;7.13;;;3.78;;
40537;SDS011;27925;41.874;12.526;2023-01-20T02:59:26;10.02;;;3.78;;
40537;SDS011;27925;41.874;12.526;2023-01-20T03:02:00;9.68;;;3.80;;
40537;SDS011;27925;41.874;12.526;2023-01-20T03:04:32;7.97;;;3.45;;
40537;SDS011;27925;41.874;12.526;2023-01-20T03:07:08;11.38;;;4.47;;
40537;SDS011;27925;41.874;12.526;2023-01-20T03:09:36;7.70;;;4.30;;
40537;SDS011;27925;41.874;12.526;2023-01-20T03:12:22;9.75;;;4.13;;
40537;SDS011;27925;41.874;12.526;2023-01-20T03:14:52;8.98;;;4.10;;
40537;SDS011;27925;41.874;12.526;2023-01-20T03:17:18;9.40;;;4.22;;
40537;SDS011;27925;41.874;12.526;2023-01-20T03:19:45;8.95;;;4.35;;
40537;SDS011;27925;41.874;12.526;2023-01-20T03:22:11;8.55;;;4.00;;
40537;SDS011;27925;41.874;12.526;2023-01-20T03:24:37;10.82;;;4.68;;
40537;SDS011;27925;41.874;12.526;2023-01-20T03:27:05;8.55;;;4.32;;
40537;SDS011;27925;41.874;12.526;2023-01-20T03:29:31;11.23;;;4.80;;
40537;SDS011;27925;41.874;12.526;2023-01-20T03:32:01;9.55;;;4.63;;
40537;SDS011;27925;41.874;12.526;2023-01-20T03:34:30;9.50;;;4.03;;
40537;SDS011;27925;41.874;12.526;2023-01-20T03:36:57;7.95;;;3.90;;
40537;SDS011;27925;41.874;12.526;2023-01-20T03:39:25;10.10;;;4.50;;
40537;SDS011;27925;41.874;12.526;2023-01-20T03:42:05;8.05;;;4.38;;
40537;SDS011;27925;41.874;12.526;2023-01-20T03:45:00;8.30;;;4.05;;
40537;SDS011;27925;41.874;12.526;2023-01-20T03:50:11;8.68;;;4.10;;
40537;SDS011;27925;41.874;12.526;2023-01-20T03:58:14;11.05;;;4.65;;
40537;SDS011;27925;41.874;12.526;2023-01-20T04:00:45;10.20;;;4.68;;
40537;SDS011;27925;41.874;12.526;2023-01-20T04:03:14;9.13;;;4.47;;
40537;SDS011;27925;41.874;12.526;2023-01-20T04:05:43;11.32;;;4.50;;
40537;SDS011;27925;41.874;12.526;2023-01-20T04:08:10;11.98;;;5.13;;
40537;SDS011;27925;41.874;12.526;2023-01-20T04:10:39;8.30;;;4.00;;
40537;SDS011;27925;41.874;12.526;2023-01-20T04:13:07;7.70;;;4.43;;
40537;SDS011;27925;41.874;12.526;2023-01-20T04:15:33;8.25;;;3.80;;
40537;SDS011;27925;41.874;12.526;2023-01-20T04:18:10;8.85;;;4.20;;
40537;SDS011;27925;41.874;12.526;2023-01-20T04:20:37;10.10;;;4.38;;
40537;SDS011;27925;41.874;12.526;2023-01-20T04:23:03;10.27;;;4.22;;
40537;SDS011;27925;41.874;12.526;2023-01-20T04:25:31;10.15;;;4.43;;
40537;SDS011;27925;41.874;12.526;2023-01-20T04:27:57;9.52;;;4.57;;
40537;SDS011;27925;41.874;12.526;2023-01-20T04:30:22;8.95;;;4.15;;
40537;SDS011;27925;41.874;12.526;2023-01-20T04:32:48;11.35;;;3.88;;
40537;SDS011;27925;41.874;12.526;2023-01-20T04:35:18;11.50;;;4.05;;
40537;SDS011;27925;41.874;12.526;2023-01-20T04:37:44;9.02;;;3.80;;
40537;SDS011;27925;41.874;12.526;2023-01-20T04:40:10;9.57;;;4.07;;
40537;SDS011;27925;41.874;12.526;2023-01-20T04:42:36;7.60;;;3.90;;
40537;SDS011;27925;41.874;12.526;2023-01-20T04:45:02;7.95;;;3.72;;
40537;SDS011;27925;41.874;12.526;2023-01-20T04:47:29;9.68;;;3.88;;
40537;SDS011;27925;41.874;12.526;2023-01-20T04:49:55;9.75;;;4.13;;
40537;SDS011;27925;41.874;12.526;2023-01-20T04:52:21;15.48;;;7.32;;
40537;SDS011;27925;41.874;12.526;2023-01-20T04:54:47;9.50;;;4.10;;
40537;SDS011;27925;41.874;12.526;2023-01-20T04:57:12;9.60;;;3.63;;
40537;SDS011;27925;41.874;12.526;2023-01-20T04:59:38;8.32;;;3.65;;
40537;SDS011;27925;41.874;12.526;2023-01-20T05:02:03;8.98;;;3.53;;
40537;SDS011;27925;41.874;12.526;2023-01-20T05:04:29;8.63;;;4.30;;
40537;SDS011;27925;41.874;12.526;2023-01-20T05:06:55;7.20;;;3.70;;
40537;SDS011;27925;41.874;12.526;2023-01-20T05:09:20;10.40;;;3.80;;
40537;SDS011;27925;41.874;12.526;2023-01-20T05:11:46;7.43;;;4.18;;
40537;SDS011;27925;41.874;12.526;2023-01-20T05:14:12;8.95;;;4.20;;
40537;SDS011;27925;41.874;12.526;2023-01-20T05:16:38;9.60;;;4.25;;
40537;SDS011;27925;41.874;12.526;2023-01-20T05:19:03;10.57;;;4.38;;
40537;SDS011;27925;41.874;12.526;2023-01-20T05:21:29;8.57;;;4.07;;
40537;SDS011;27925;41.874;12.526;2023-01-20T05:23:55;8.25;;;3.30;;
40537;SDS011;27925;41.874;12.526;2023-01-20T05:26:24;9.95;;;3.53;;
40537;SDS011;27925;41.874;12.526;2023-01-20T05:28:50;7.97;;;3.72;;
40537;SDS011;27925;41.874;12.526;2023-01-20T05:31:16;7.50;;;3.92;;
40537;SDS011;27925;41.874;12.526;2023-01-20T05:33:42;9.15;;;3.40;;
40537;SDS011;27925;41.874;12.526;2023-01-20T05:36:09;9.75;;;3.67;;
40537;SDS011;27925;41.874;12.526;2023-01-20T05:38:35;6.82;;;3.08;;
40537;SDS011;27925;41.874;12.526;2023-01-20T05:41:02;8.45;;;3.63;;
40537;SDS011;27925;41.874;12.526;2023-01-20T05:43:29;8.98;;;3.85;;
40537;SDS011;27925;41.874;12.526;2023-01-20T05:45:55;6.78;;;3.20;;
40537;SDS011;27925;41.874;12.526;2023-01-20T05:48:21;9.10;;;3.38;;
40537;SDS011;27925;41.874;12.526;2023-01-20T05:50:47;8.35;;;3.25;;
40537;SDS011;27925;41.874;12.526;2023-01-20T05:53:13;10.23;;;4.53;;
40537;SDS011;27925;41.874;12.526;2023-01-20T05:55:39;10.00;;;3.80;;
40537;SDS011;27925;41.874;12.526;2023-01-20T05:58:05;7.88;;;4.07;;
40537;SDS011;27925;41.874;12.526;2023-01-20T06:00:32;10.55;;;6.28;;
40537;SDS011;27925;41.874;12.526;2023-01-20T06:02:58;13.05;;;4.18;;
40537;SDS011;27925;41.874;12.526;2023-01-20T06:05:24;8.80;;;3.25;;
40537;SDS011;27925;41.874;12.526;2023-01-20T06:07:50;9.40;;;3.70;;
40537;SDS011;27925;41.874;12.526;2023-01-20T06:10:16;10.43;;;4.38;;
40537;SDS011;27925;41.874;12.526;2023-01-20T06:12:42;15.25;;;4.05;;
40537;SDS011;27925;41.874;12.526;2023-01-20T06:15:08;8.60;;;4.30;;
40537;SDS011;27925;41.874;12.526;2023-01-20T06:17:34;10.65;;;5.05;;
40537;SDS011;27925;41.874;12.526;2023-01-20T06:20:00;11.15;;;4.50;;
40537;SDS011;27925;41.874;12.526;2023-01-20T06:22:26;8.45;;;4.30;;
40537;SDS011;27925;41.874;12.526;2023-01-20T06:24:52;11.77;;;5.30;;
40537;SDS011;27925;41.874;12.526;2023-01-20T06:27:18;12.85;;;5.00;;
40537;SDS011;27925;41.874;12.526;2023-01-20T06:29:44;12.20;;;4.78;;
40537;SDS011;27925;41.874;12.526;2023-01-20T06:32:10;9.15;;;4.63;;
40537;SDS011;27925;41.874;12.526;2023-01-20T06:34:36;10.20;;;5.47;;
40537;SDS011;27925;41.874;12.526;2023-01-20T06:37:02;13.23;;;4.78;;
40537;SDS011;27925;41.874;12.526;2023-01-20T06:39:28;12.40;;;5.22;;
40537;SDS011;27925;41.874;12.526;2023-01-20T06:41:59;11.82;;;5.47;;
40537;SDS011;27925;41.874;12.526;2023-01-20T06:44:25;11.18;;;4.93;;
40537;SDS011;27925;41.874;12.526;2023-01-20T06:46:51;12.95;;;4.93;;
40537;SDS011;27925;41.874;12.526;2023-01-20T06:49:17;10.63;;;4.38;;
40537;SDS011;27925;41.874;12.526;2023-01-20T06:51:43;11.98;;;5.38;;
40537;SDS011;27925;41.874;12.526;2023-01-20T06:54:08;13.80;;;5.45;;
40537;SDS011;27925;41.874;12.526;2023-01-20T06:56:34;11.18;;;5.55;;
40537;SDS011;27925;41.874;12.526;2023-01-20T06:59:00;13.15;;;5.10;;
40537;SDS011;27925;41.874;12.526;2023-01-20T07:01:26;13.65;;;5.15;;
40537;SDS011;27925;41.874;12.526;2023-01-20T07:03:54;10.95;;;5.95;;
40537;SDS011;27925;41.874;12.526;2023-01-20T07:06:27;12.32;;;6.22;;
40537;SDS011;27925;41.874;12.526;2023-01-20T07:08:55;17.13;;;7.32;;
40537;SDS011;27925;41.874;12.526;2023-01-20T07:11:21;16.50;;;7.45;;
40537;SDS011;27925;41.874;12.526;2023-01-20T07:13:47;29.95;;;12.38;;
40537;SDS011;27925;41.874;12.526;2023-01-20T07:16:13;17.50;;;9.95;;
40537;SDS011;27925;41.874;12.526;2023-01-20T07:18:39;16.05;;;7.15;;
40537;SDS011;27925;41.874;12.526;2023-01-20T07:21:05;14.68;;;6.88;;
40537;SDS011;27925;41.874;12.526;2023-01-20T07:23:31;12.20;;;6.00;;
40537;SDS011;27925;41.874;12.526;2023-01-20T07:26:02;17.42;;;6.20;;
40537;SDS011;27925;41.874;12.526;2023-01-20T07:28:30;18.77;;;6.13;;
40537;SDS011;27925;41.874;12.526;2023-01-20T07:31:01;21.10;;;6.07;;
40537;SDS011;27925;41.874;12.526;2023-01-20T07:33:31;14.23;;;6.35;;
40537;SDS011;27925;41.874;12.526;2023-01-20T07:35:57;15.45;;;6.50;;
40537;SDS011;27925;41.874;12.526;2023-01-20T07:38:23;15.18;;;5.97;;
40537;SDS011;27925;41.874;12.526;2023-01-20T07:40:49;9.80;;;5.70;;
40537;SDS011;27925;41.874;12.526;2023-01-20T07:43:15;14.00;;;6.47;;
40537;SDS011;27925;41.874;12.526;2023-01-20T07:45:40;12.30;;;5.97;;
40537;SDS011;27925;41.874;12.526;2023-01-20T07:48:06;13.60;;;6.00;;
40537;SDS011;27925;41.874;12.526;2023-01-20T07:50:33;14.23;;;5.93;;
40537;SDS011;27925;41.874;12.526;2023-01-20T07:52:59;12.55;;;5.32;;
40537;SDS011;27925;41.874;12.526;2023-01-20T07:55:25;10.80;;;5.93;;
40537;SDS011;27925;41.874;12.526;2023-01-20T07:57:51;13.90;;;5.40;;
40537;SDS011;27925;41.874;12.526;2023-01-20T08:00:17;10.00;;;5.32;;
40537;SDS011;27925;41.874;12.526;2023-01-20T08:02:43;13.00;;;5.38;;
40537;SDS011;27925;41.874;12.526;2023-01-20T08:05:09;12.13;;;5.70;;
40537;SDS011;27925;41.874;12.526;2023-01-20T08:07:35;10.52;;;5.05;;
40537;SDS011;27925;41.874;12.526;2023-01-20T08:10:00;9.85;;;5.25;;
40537;SDS011;27925;41.874;12.526;2023-01-20T08:12:27;11.18;;;5.55;;
40537;SDS011;27925;41.874;12.526;2023-01-20T08:14:53;9.35;;;5.57;;
40537;SDS011;27925;41.874;12.526;2023-01-20T08:17:19;12.52;;;5.75;;
40537;SDS011;27925;41.874;12.526;2023-01-20T08:19:45;11.23;;;5.88;;
40537;SDS011;27925;41.874;12.526;2023-01-20T08:22:11;12.35;;;5.40;;
40537;SDS011;27925;41.874;12.526;2023-01-20T08:24:36;12.73;;;5.97;;
40537;SDS011;27925;41.874;12.526;2023-01-20T08:27:02;9.02;;;5.60;;
40537;SDS011;27925;41.874;12.526;2023-01-20T08:29:28;13.70;;;5.25;;
40537;SDS011;27925;41.874;12.526;2023-01-20T08:31:57;11.40;;;5.70;;
40537;SDS011;27925;41.874;12.526;2023-01-20T08:34:26;19.30;;;9.35;;
40537;SDS011;27925;41.874;12.526;2023-01-20T08:36:52;14.20;;;5.70;;
40537;SDS011;27925;41.874;12.526;2023-01-20T08:39:21;10.38;;;5.88;;
40537;SDS011;27925;41.874;12.526;2023-01-20T08:41:48;10.82;;;5.32;;
40537;SDS011;27925;41.874;12.526;2023-01-20T08:44:15;9.68;;;5.25;;
40537;SDS011;27925;41.874;12.526;2023-01-20T08:46:41;9.43;;;5.57;;
40537;SDS011;27925;41.874;12.526;2023-01-20T08:49:08;13.60;;;6.03;;
40537;SDS011;27925;41.874;12.526;2023-01-20T08:51:39;12.00;;;6.28;;
40537;SDS011;27925;41.874;12.526;2023-01-20T08:54:05;15.85;;;5.63;;
40537;SDS011;27925;41.874;12.526;2023-01-20T08:56:30;14.48;;;5.45;;
40537;SDS011;27925;41.874;12.526;2023-01-20T08:58:58;24.52;;;6.53;;
40537;SDS011;27925;41.874;12.526;2023-01-20T09:01:25;15.68;;;5.70;;
40537;SDS011;27925;41.874;12.526;2023-01-20T09:03:53;17.15;;;5.32;;
40537;SDS011;27925;41.874;12.526;2023-01-20T09:06:20;35.13;;;6.65;;
40537;SDS011;27925;41.874;12.526;2023-01-20T09:08:47;11.68;;;4.65;;
40537;SDS011;27925;41.874;12.526;2023-01-20T09:11:15;17.08;;;5.90;;
40537;SDS011;27925;41.874;12.526;2023-01-20T09:13:43;15.63;;;4.93;;
40537;SDS011;27925;41.874;12.526;2023-01-20T09:16:12;10.20;;;4.97;;
40537;SDS011;27925;41.874;12.526;2023-01-20T09:18:39;12.70;;;4.68;;
40537;SDS011;27925;41.874;12.526;2023-01-20T09:21:04;9.95;;;4.95;;
40537;SDS011;27925;41.874;12.526;2023-01-20T09:23:31;14.60;;;5.18;;
40537;SDS011;27925;41.874;12.526;2023-01-20T09:25:59;10.38;;;5.30;;
40537;SDS011;27925;41.874;12.526;2023-01-20T09:28:25;13.05;;;4.82;;
40537;SDS011;27925;41.874;12.526;2023-01-20T09:30:57;9.82;;;5.57;;
40537;SDS011;27925;41.874;12.526;2023-01-20T09:33:31;12.55;;;5.43;;
40537;SDS011;27925;41.874;12.526;2023-01-20T09:36:00;15.32;;;5.50;;
40537;SDS011;27925;41.874;12.526;2023-01-20T09:38:26;11.88;;;5.13;;
40537;SDS011;27925;41.874;12.526;2023-01-20T09:46:40;13.07;;;4.60;;
40537;SDS011;27925;41.874;12.526;2023-01-20T10:01:39;9.80;;;3.38;;
40537;SDS011;27925;41.874;12.526;2023-01-20T10:04:12;7.22;;;4.30;;
40537;SDS011;27925;41.874;12.526;2023-01-20T10:10:02;11.07;;;3.50;;
40537;SDS011;27925;41.874;12.526;2023-01-20T10:12:55;12.30;;;3.45;;
40537;SDS011;27925;41.874;12.526;2023-01-20T10:15:26;6.40;;;2.80;;
40537;SDS011;27925;41.874;12.526;2023-01-20T10:28:48;11.90;;;3.10;;
40537;SDS011;27925;41.874;12.526;2023-01-20T10:31:20;6.88;;;3.10;;
40537;SDS011;27925;41.874;12.526;2023-01-20T10:33:51;11.13;;;3.40;;
40537;SDS011;27925;41.874;12.526;2023-01-20T10:36:25;8.82;;;3.33;;
40537;SDS011;27925;41.874;12.526;2023-01-20T10:41:35;9.77;;;3.95;;
40537;SDS011;27925;41.874;12.526;2023-01-20T10:44:09;7.15;;;3.40;;
40537;SDS011;27925;41.874;12.526;2023-01-20T10:58:29;13.52;;;4.32;;
40537;SDS011;27925;41.874;12.526;2023-01-20T11:00:46;7.82;;;3.58;;
40537;SDS011;27925;41.874;12.526;2023-01-20T11:03:14;10.23;;;3.65;;
40537;SDS011;27925;41.874;12.526;2023-01-20T11:05:44;12.48;;;4.00;;
40537;SDS011;27925;41.874;12.526;2023-01-20T11:10:48;9.45;;;3.42;;
40537;SDS011;27925;41.874;12.526;2023-01-20T11:13:20;9.00;;;3.83;;
40537;SDS011;27925;41.874;12.526;2023-01-20T11:15:47;8.07;;;3.80;;
40537;SDS011;27925;41.874;12.526;2023-01-20T11:20:48;7.95;;;3.40;;
40537;SDS011;27925;41.874;12.526;2023-01-20T11:28:49;10.52;;;2.97;;
40537;SDS011;27925;41.874;12.526;2023-01-20T11:31:21;11.38;;;3.42;;
40537;SDS011;27925;41.874;12.526;2023-01-20T11:52:33;13.65;;;4.03;;
40537;SDS011;27925;41.874;12.526;2023-01-20T11:55:07;10.80;;;3.70;;
40537;SDS011;27925;41.874;12.526;2023-01-20T11:57:50;21.88;;;5.10;;
40537;SDS011;27925;41.874;12.526;2023-01-20T12:08:30;13.27;;;4.88;;
40537;SDS011;27925;41.874;12.526;2023-01-20T12:11:06;12.05;;;4.20;;
40537;SDS011;27925;41.874;12.526;2023-01-20T12:25:42;9.80;;;4.53;;
40537;SDS011;27925;41.874;12.526;2023-01-20T12:46:51;14.13;;;6.50;;
40537;SDS011;27925;41.874;12.526;2023-01-20T12:59:55;11.77;;;6.88;;
40537;SDS011;27925;41.874;12.526;2023-01-20T13:05:40;9.93;;;5.45;;
40537;SDS011;27925;41.874;12.526;2023-01-20T13:11:31;12.65;;;5.32;;
40537;SDS011;27925;41.874;12.526;2023-01-20T13:14:01;12.18;;;5.13;;
40537;SDS011;27925;41.874;12.526;2023-01-20T13:16:45;10.65;;;5.50;;
40537;SDS011;27925;41.874;12.526;2023-01-20T13:19:32;10.60;;;5.22;;
40537;SDS011;27925;41.874;12.526;2023-01-20T13:22:06;11.90;;;5.45;;
40537;SDS011;27925;41.874;12.526;2023-01-20T13:27:00;10.20;;;4.97;;
40537;SDS011;27925;41.874;12.526;2023-01-20T13:30:36;11.50;;;5.25;;
40537;SDS011;27925;41.874;12.526;2023-01-20T13:37:56;12.55;;;5.30;;
40537;SDS011;27925;41.874;12.526;2023-01-20T13:40:46;9.95;;;4.63;;
40537;SDS011;27925;41.874;12.526;2023-01-20T13:48:31;10.52;;;5.35;;
40537;SDS011;27925;41.874;12.526;2023-01-20T13:53:44;9.40;;;5.32;;
40537;SDS011;27925;41.874;12.526;2023-01-20T13:56:23;9.63;;;5.20;;
40537;SDS011;27925;41.874;12.526;2023-01-20T13:58:49;11.75;;;5.20;;
40537;SDS011;27925;41.874;12.526;2023-01-20T14:01:15;16.60;;;5.20;;
40537;SDS011;27925;41.874;12.526;2023-01-20T14:03:40;12.10;;;5.55;;
40537;SDS011;27925;41.874;12.526;2023-01-20T14:08:45;10.23;;;4.85;;
40537;SDS011;27925;41.874;12.526;2023-01-20T14:11:19;13.55;;;5.43;;
40537;SDS011;27925;41.874;12.526;2023-01-20T14:13:53;11.80;;;4.93;;
40537;SDS011;27925;41.874;12.526;2023-01-20T14:16:28;16.58;;;6.13;;
40537;SDS011;27925;41.874;12.526;2023-01-20T14:19:14;14.48;;;6.05;;
40537;SDS011;27925;41.874;12.526;2023-01-20T14:22:15;17.02;;;5.88;;
40537;SDS011;27925;41.874;12.526;2023-01-20T14:24:52;12.32;;;5.65;;
40537;SDS011;27925;41.874;12.526;2023-01-20T14:27:23;11.63;;;5.43;;
40537;SDS011;27925;41.874;12.526;2023-01-20T14:30:35;13.45;;;5.90;;
40537;SDS011;27925;41.874;12.526;2023-01-20T14:32:42;12.60;;;5.78;;
40537;SDS011;27925;41.874;12.526;2023-01-20T14:37:41;10.50;;;4.82;;
40537;SDS011;27925;41.874;12.526;2023-01-20T14:42:36;10.05;;;4.60;;
40537;SDS011;27925;41.874;12.526;2023-01-20T14:45:19;10.73;;;4.57;;
40537;SDS011;27925;41.874;12.526;2023-01-20T14:47:47;13.13;;;4.95;;
40537;SDS011;27925;41.874;12.526;2023-01-20T14:50:14;12.43;;;5.97;;
40537;SDS011;27925;41.874;12.526;2023-01-20T14:52:41;12.73;;;4.30;;
40537;SDS011;27925;41.874;12.526;2023-01-20T14:57:58;8.40;;;4.30;;
40537;SDS011;27925;41.874;12.526;2023-01-20T15:00:31;12.82;;;4.78;;
40537;SDS011;27925;41.874;12.526;2023-01-20T15:03:06;10.68;;;4.70;;
40537;SDS011;27925;41.874;12.526;2023-01-20T15:26:41;10.45;;;4.90;;
40537;SDS011;27925;41.874;12.526;2023-01-20T15:31:55;13.02;;;4.78;;
40537;SDS011;27925;41.874;12.526;2023-01-20T15:34:23;10.02;;;4.50;;
40537;SDS011;27925;41.874;12.526;2023-01-20T15:36:50;10.65;;;4.53;;
40537;SDS011;27925;41.874;12.526;2023-01-20T15:39:21;11.35;;;4.70;;
40537;SDS011;27925;41.874;12.526;2023-01-20T15:41:53;10.75;;;4.72;;
40537;SDS011;27925;41.874;12.526;2023-01-20T15:44:19;8.82;;;3.58;;
40537;SDS011;27925;41.874;12.526;2023-01-20T15:46:45;7.88;;;3.03;;
40537;SDS011;27925;41.874;12.526;2023-01-20T15:49:11;6.47;;;2.70;;
40537;SDS011;27925;41.874;12.526;2023-01-20T15:51:39;8.80;;;3.15;;
40537;SDS011;27925;41.874;12.526;2023-01-20T15:54:05;7.03;;;2.63;;
40537;SDS011;27925;41.874;12.526;2023-01-20T15:56:34;6.13;;;2.30;;
40537;SDS011;27925;41.874;12.526;2023-01-20T15:59:16;5.93;;;2.58;;
40537;SDS011;27925;41.874;12.526;2023-01-20T16:01:46;4.80;;;2.05;;
40537;SDS011;27925;41.874;12.526;2023-01-20T16:04:13;6.20;;;1.95;;
40537;SDS011;27925;41.874;12.526;2023-01-20T16:06:39;5.75;;;2.35;;
40537;SDS011;27925;41.874;12.526;2023-01-20T16:09:25;6.68;;;2.45;;
40537;SDS011;27925;41.874;12.526;2023-01-20T16:11:53;10.05;;;3.30;;
40537;SDS011;27925;41.874;12.526;2023-01-20T16:14:19;7.45;;;2.83;;
40537;SDS011;27925;41.874;12.526;2023-01-20T16:16:45;14.68;;;4.18;;
40537;SDS011;27925;41.874;12.526;2023-01-20T16:19:13;15.48;;;5.97;;
40537;SDS011;27925;41.874;12.526;2023-01-20T16:21:39;10.63;;;3.88;;
40537;SDS011;27925;41.874;12.526;2023-01-20T16:24:05;9.68;;;3.22;;
40537;SDS011;27925;41.874;12.526;2023-01-20T16:26:31;7.90;;;3.58;;
40537;SDS011;27925;41.874;12.526;2023-01-20T16:28:59;6.30;;;3.10;;
40537;SDS011;27925;41.874;12.526;2023-01-20T16:31:25;6.72;;;3.35;;
40537;SDS011;27925;41.874;12.526;2023-01-20T16:33:51;5.20;;;2.42;;
40537;SDS011;27925;41.874;12.526;2023-01-20T16:36:18;4.68;;;2.38;;
40537;SDS011;27925;41.874;12.526;2023-01-20T16:38:45;3.70;;;2.00;;
40537;SDS011;27925;41.874;12.526;2023-01-20T16:41:33;5.07;;;2.00;;
40537;SDS011;27925;41.874;12.526;2023-01-20T16:44:00;8.27;;;2.17;;
40537;SDS011;27925;41.874;12.526;2023-01-20T16:46:26;5.38;;;2.20;;
40537;SDS011;27925;41.874;12.526;2023-01-20T16:48:53;5.40;;;2.20;;
40537;SDS011;27925;41.874;12.526;2023-01-20T16:51:25;3.78;;;1.90;;
40537;SDS011;27925;41.874;12.526;2023-01-20T16:53:53;3.85;;;1.73;;
40537;SDS011;27925;41.874;12.526;2023-01-20T16:56:21;3.33;;;1.73;;
40537;SDS011;27925;41.874;12.526;2023-01-20T16:58:50;4.32;;;1.95;;
40537;SDS011;27925;41.874;12.526;2023-01-20T17:01:17;4.78;;;1.90;;
40537;SDS011;27925;41.874;12.526;2023-01-20T17:03:48;5.97;;;1.98;;
40537;SDS011;27925;41.874;12.526;2023-01-20T17:06:16;3.45;;;1.80;;
40537;SDS011;27925;41.874;12.526;2023-01-20T17:08:47;4.97;;;2.03;;
40537;SDS011;27925;41.874;12.526;2023-01-20T17:11:17;5.13;;;2.10;;
40537;SDS011;27925;41.874;12.526;2023-01-20T17:13:51;5.25;;;2.17;;
40537;SDS011;27925;41.874;12.526;2023-01-20T17:16:17;6.28;;;2.08;;
40537;SDS011;27925;41.874;12.526;2023-01-20T17:18:47;4.65;;;2.20;;
40537;SDS011;27925;41.874;12.526;2023-01-20T17:21:20;5.38;;;2.35;;
40537;SDS011;27925;41.874;12.526;2023-01-20T17:23:53;4.80;;;2.10;;
40537;SDS011;27925;41.874;12.526;2023-01-20T17:26:20;4.22;;;2.13;;
40537;SDS011;27925;41.874;12.526;2023-01-20T17:28:47;4.65;;;1.75;;
40537;SDS011;27925;41.874;12.526;2023-01-20T17:31:13;4.03;;;1.45;;
40537;SDS011;27925;41.874;12.526;2023-01-20T17:33:44;6.18;;;2.20;;
40537;SDS011;27925;41.874;12.526;2023-01-20T17:36:10;3.50;;;1.83;;
40537;SDS011;27925;41.874;12.526;2023-01-20T17:38:36;3.78;;;1.77;;
40537;SDS011;27925;41.874;12.526;2023-01-20T17:41:04;5.20;;;1.65;;
40537;SDS011;27925;41.874;12.526;2023-01-20T17:43:31;3.05;;;1.50;;
40537;SDS011;27925;41.874;12.526;2023-01-20T17:45:58;2.50;;;1.35;;
40537;SDS011;27925;41.874;12.526;2023-01-20T17:48:25;4.32;;;1.83;;
40537;SDS011;27925;41.874;12.526;2023-01-20T17:50:50;3.55;;;1.50;;
40537;SDS011;27925;41.874;12.526;2023-01-20T17:53:22;3.95;;;1.65;;
40537;SDS011;27925;41.874;12.526;2023-01-20T17:55:51;5.43;;;2.03;;
40537;SDS011;27925;41.874;12.526;2023-01-20T17:58:17;3.40;;;1.88;;
40537;SDS011;27925;41.874;12.526;2023-01-20T18:00:43;3.00;;;1.67;;
40537;SDS011;27925;41.874;12.526;2023-01-20T18:03:08;3.33;;;1.58;;
40537;SDS011;27925;41.874;12.526;2023-01-20T18:05:34;4.53;;;1.90;;
40537;SDS011;27925;41.874;12.526;2023-01-20T18:08:00;4.85;;;2.50;;
40537;SDS011;27925;41.874;12.526;2023-01-20T18:10:26;3.75;;;2.28;;
40537;SDS011;27925;41.874;12.526;2023-01-20T18:12:52;3.83;;;1.80;;
40537;SDS011;27925;41.874;12.526;2023-01-20T18:15:18;4.53;;;2.05;;
40537;SDS011;27925;41.874;12.526;2023-01-20T18:17:45;3.75;;;1.70;;
40537;SDS011;27925;41.874;12.526;2023-01-20T18:20:11;5.07;;;1.45;;
40537;SDS011;27925;41.874;12.526;2023-01-20T18:22:38;5.82;;;1.77;;
40537;SDS011;27925;41.874;12.526;2023-01-20T18:25:05;3.80;;;1.90;;
40537;SDS011;27925;41.874;12.526;2023-01-20T18:27:30;4.15;;;1.83;;
40537;SDS011;27925;41.874;12.526;2023-01-20T18:29:57;4.70;;;2.20;;
40537;SDS011;27925;41.874;12.526;2023-01-20T18:32:23;4.80;;;1.92;;
40537;SDS011;27925;41.874;12.526;2023-01-20T18:34:48;6.07;;;2.30;;
40537;SDS011;27925;41.874;12.526;2023-01-20T18:37:14;5.15;;;2.05;;
40537;SDS011;27925;41.874;12.526;2023-01-20T18:39:40;6.00;;;2.05;;
40537;SDS011;27925;41.874;12.526;2023-01-20T18:42:05;5.38;;;2.25;;
40537;SDS011;27925;41.874;12.526;2023-01-20T18:44:31;8.70;;;2.60;;
40537;SDS011;27925;41.874;12.526;2023-01-20T18:46:57;4.22;;;2.00;;
40537;SDS011;27925;41.874;12.526;2023-01-20T18:49:22;4.53;;;2.10;;
40537;SDS011;27925;41.874;12.526;2023-01-20T18:51:48;5.55;;;2.30;;
40537;SDS011;27925;41.874;12.526;2023-01-20T18:54:15;3.63;;;1.98;;
40537;SDS011;27925;41.874;12.526;2023-01-20T18:56:42;6.22;;;2.35;;
40537;SDS011;27925;41.874;12.526;2023-01-20T18:59:08;2.78;;;1.50;;
40537;SDS011;27925;41.874;12.526;2023-01-20T19:01:36;3.65;;;1.60;;
40537;SDS011;27925;41.874;12.526;2023-01-20T19:04:04;7.28;;;1.65;;
40537;SDS011;27925;41.874;12.526;2023-01-20T19:06:33;4.75;;;1.73;;
40537;SDS011;27925;41.874;12.526;2023-01-20T19:09:01;4.97;;;1.77;;
40537;SDS011;27925;41.874;12.526;2023-01-20T19:11:29;6.35;;;1.95;;
40537;SDS011;27925;41.874;12.526;2023-01-20T19:13:56;4.55;;;1.90;;
40537;SDS011;27925;41.874;12.526;2023-01-20T19:16:24;3.50;;;1.73;;